createdAt,value
2022-10-17T00:00:56.293Z,13.82
2022-10-17T00:03:23.089Z,13.86
2022-10-17T00:05:49.949Z,13.89
2022-10-17T00:08:18.992Z,13.93
2022-10-17T00:10:54.791Z,13.96
2022-10-17T00:13:21.598Z,13.97
2022-10-17T00:15:48.420Z,13.99
2022-10-17T00:18:15.189Z,14.00
2022-10-17T00:20:42.117Z,14.00
2022-10-17T00:23:09.128Z,14.02
2022-10-17T00:25:37.000Z,14.00
2022-10-17T00:28:04.106Z,14.00
2022-10-17T00:30:32.792Z,14.01
2022-10-17T00:32:59.571Z,14.00
2022-10-17T00:35:26.412Z,13.99
2022-10-17T00:37:53.110Z,13.98
2022-10-17T00:40:19.964Z,13.98
2022-10-17T00:42:47.902Z,13.99
2022-10-17T00:45:19.628Z,13.99
2022-10-17T00:48:04.277Z,13.99
2022-10-17T00:50:31.947Z,13.98
2022-10-17T00:53:02.799Z,13.99
2022-10-17T00:55:34.587Z,14.01
2022-10-17T00:58:05.220Z,13.99
2022-10-17T01:00:32.092Z,14.05
2022-10-17T01:02:59.059Z,14.06
2022-10-17T01:05:26.383Z,14.08
2022-10-17T01:07:54.872Z,14.10
2022-10-17T01:10:27.528Z,14.13
2022-10-17T01:13:42.537Z,14.14
2022-10-17T01:16:39.499Z,14.16
2022-10-17T01:19:49.341Z,14.19
2022-10-17T01:22:36.046Z,14.19
2022-10-17T01:25:33.700Z,14.19
2022-10-17T01:28:36.944Z,14.19
2022-10-17T01:31:15.391Z,14.21
2022-10-17T01:33:56.205Z,14.21
2022-10-17T01:36:39.469Z,14.24
2022-10-17T01:39:11.830Z,14.24
2022-10-17T01:41:51.536Z,14.29
2022-10-17T01:44:25.093Z,14.29
2022-10-17T01:47:02.523Z,14.28
2022-10-17T01:49:34.491Z,14.31
2022-10-17T01:52:10.842Z,14.37
2022-10-17T01:54:48.159Z,14.36
2022-10-17T01:57:35.333Z,14.41
2022-10-17T02:00:09.588Z,14.46
2022-10-17T02:02:43.652Z,14.55
2022-10-17T02:05:11.115Z,14.56
2022-10-17T02:07:37.907Z,14.56
2022-10-17T02:10:19.712Z,14.60
2022-10-17T02:13:17.221Z,14.66
2022-10-17T02:16:17.870Z,14.72
2022-10-17T02:19:20.101Z,14.72
2022-10-17T02:22:10.937Z,14.71
2022-10-17T02:25:02.236Z,14.71
2022-10-17T02:27:53.756Z,14.71
2022-10-17T02:30:41.911Z,14.71
2022-10-17T02:33:31.833Z,14.70
2022-10-17T02:36:08.859Z,14.69
2022-10-17T02:38:36.032Z,14.69
2022-10-17T02:41:09.723Z,14.70
2022-10-17T02:43:38.948Z,14.72
2022-10-17T02:46:08.154Z,14.72
2022-10-17T02:48:44.153Z,14.72
2022-10-17T02:51:36.839Z,14.71
2022-10-17T02:54:32.804Z,14.70
2022-10-17T02:57:06.376Z,14.73
2022-10-17T02:59:35.931Z,14.71
2022-10-17T03:02:06.146Z,14.69
2022-10-17T03:04:34.635Z,14.70
2022-10-17T03:07:01.432Z,14.71
2022-10-17T03:09:28.203Z,14.73
2022-10-17T03:11:55.306Z,14.73
2022-10-17T03:14:22.059Z,14.73
2022-10-17T03:16:48.849Z,14.72
2022-10-17T03:19:17.648Z,14.70
2022-10-17T03:21:44.530Z,14.71
2022-10-17T03:24:12.313Z,14.72
2022-10-17T03:26:39.337Z,14.75
2022-10-17T03:29:07.414Z,14.76
2022-10-17T03:31:36.586Z,14.79
2022-10-17T03:34:05.357Z,14.75
2022-10-17T03:36:32.373Z,14.77
2022-10-17T03:38:59.260Z,14.76
2022-10-17T03:41:27.593Z,14.77
2022-10-17T03:43:54.610Z,14.80
2022-10-17T03:46:23.597Z,14.89
2022-10-17T03:48:50.921Z,14.93
2022-10-17T03:51:17.906Z,14.91
2022-10-17T03:53:49.867Z,14.93
2022-10-17T03:56:21.644Z,14.96
2022-10-17T03:58:57.778Z,14.92
2022-10-17T04:01:25.180Z,14.91
2022-10-17T04:03:54.909Z,14.90
2022-10-17T04:06:22.794Z,14.90
2022-10-17T04:08:50.310Z,14.95
2022-10-17T04:11:37.355Z,15.00
2022-10-17T04:14:05.122Z,15.02
2022-10-17T04:16:32.141Z,15.05
2022-10-17T04:19:14.186Z,15.08
2022-10-17T04:21:44.858Z,15.10
2022-10-17T04:24:12.357Z,15.11
2022-10-17T04:26:51.015Z,15.15
2022-10-17T04:29:19.068Z,15.21
2022-10-17T04:31:49.890Z,15.27
2022-10-17T04:34:25.227Z,15.33
2022-10-17T04:36:53.050Z,15.43
2022-10-17T04:39:20.140Z,15.49
2022-10-17T04:41:47.886Z,15.52
2022-10-17T04:44:14.870Z,15.57
2022-10-17T04:46:47.665Z,15.69
2022-10-17T04:49:14.576Z,15.75
2022-10-17T04:51:45.942Z,15.81
2022-10-17T04:54:23.470Z,15.87
2022-10-17T04:56:59.108Z,15.94
2022-10-17T04:59:26.316Z,15.98
2022-10-17T05:02:04.146Z,15.99
2022-10-17T05:04:32.209Z,15.98
2022-10-17T05:06:59.260Z,15.95
2022-10-17T05:09:40.376Z,16.02
2022-10-17T05:12:09.571Z,16.00
2022-10-17T05:14:39.792Z,15.97
2022-10-17T05:17:06.566Z,15.95
2022-10-17T05:19:33.398Z,15.93
2022-10-17T05:22:00.396Z,15.91
2022-10-17T05:24:27.220Z,15.87
2022-10-17T05:26:54.027Z,15.83
2022-10-17T05:29:20.977Z,15.83
2022-10-17T05:31:53.102Z,15.82
2022-10-17T05:34:20.383Z,15.82
2022-10-17T05:36:47.302Z,15.83
2022-10-17T05:39:19.659Z,15.82
2022-10-17T05:41:48.043Z,15.79
2022-10-17T05:44:15.015Z,15.77
2022-10-17T05:46:45.368Z,15.76
2022-10-17T05:49:19.667Z,15.79
2022-10-17T05:51:59.031Z,15.75
2022-10-17T05:54:26.890Z,15.69
2022-10-17T05:56:55.449Z,15.74
2022-10-17T05:59:26.964Z,15.75
2022-10-17T06:01:58.209Z,15.77
2022-10-17T06:04:27.817Z,15.77
2022-10-17T06:06:56.298Z,15.76
2022-10-17T06:09:24.388Z,15.75
2022-10-17T06:11:53.815Z,15.80
2022-10-17T06:14:20.913Z,15.78
2022-10-17T06:16:51.454Z,15.79
2022-10-17T06:19:18.377Z,15.78
2022-10-17T06:21:46.501Z,15.80
2022-10-17T06:24:15.539Z,15.84
2022-10-17T06:26:43.222Z,15.85
2022-10-17T06:29:13.411Z,15.85
2022-10-17T06:31:45.527Z,15.85
2022-10-17T06:34:12.321Z,15.91
2022-10-17T06:36:40.450Z,15.96
2022-10-17T06:39:08.530Z,16.00
2022-10-17T06:41:47.318Z,16.00
2022-10-17T06:44:18.285Z,16.01
2022-10-17T06:47:03.886Z,16.02
2022-10-17T06:49:34.203Z,16.04
2022-10-17T06:52:24.844Z,16.05
2022-10-17T06:55:11.511Z,16.09
2022-10-17T06:57:46.400Z,16.15
2022-10-17T07:00:31.703Z,16.17
2022-10-17T07:02:58.596Z,16.25
2022-10-17T07:05:25.380Z,16.37
2022-10-17T07:07:52.333Z,16.43
2022-10-17T07:10:19.213Z,16.46
2022-10-17T07:12:46.224Z,16.50
2022-10-17T07:15:13.452Z,16.54
2022-10-17T07:17:40.245Z,16.59
2022-10-17T07:20:07.975Z,16.62
2022-10-17T07:22:37.086Z,16.69
2022-10-17T07:25:05.150Z,16.77
2022-10-17T07:27:42.803Z,16.83
2022-10-17T07:30:10.838Z,16.83
2022-10-17T07:32:54.610Z,16.82
2022-10-17T07:35:22.154Z,16.88
2022-10-17T07:37:49.058Z,16.89
2022-10-17T07:40:18.969Z,16.91
2022-10-17T07:42:45.795Z,16.93
2022-10-17T07:45:13.545Z,16.95
2022-10-17T07:47:42.035Z,16.99
2022-10-17T07:50:10.219Z,17.04
2022-10-17T07:52:37.398Z,17.08
2022-10-17T07:55:04.751Z,17.05
2022-10-17T07:57:31.563Z,17.05
2022-10-17T07:59:58.339Z,17.05
2022-10-17T08:02:28.095Z,16.97
2022-10-17T08:04:55.136Z,16.91
2022-10-17T08:07:26.838Z,16.93
2022-10-17T08:09:55.276Z,16.91
2022-10-17T08:12:22.250Z,16.90
2022-10-17T08:14:49.564Z,16.84
2022-10-17T08:17:16.585Z,16.80
2022-10-17T08:19:43.361Z,16.75
2022-10-17T08:22:10.213Z,16.71
2022-10-17T08:24:36.973Z,16.68
2022-10-17T08:27:08.555Z,16.66
2022-10-17T08:29:35.306Z,16.64
2022-10-17T08:32:03.715Z,16.65
2022-10-17T08:34:31.275Z,16.65
2022-10-17T08:36:58.021Z,16.53
2022-10-17T08:39:24.794Z,16.45
2022-10-17T08:42:08.377Z,16.39
2022-10-17T08:44:59.818Z,16.37
2022-10-17T08:47:36.228Z,16.33
2022-10-17T08:50:11.726Z,16.33
2022-10-17T08:53:10.880Z,16.29
2022-10-17T08:55:47.209Z,16.24
2022-10-17T08:58:28.172Z,16.21
2022-10-17T09:01:26.560Z,16.20
2022-10-17T09:04:10.992Z,16.15
2022-10-17T09:06:49.282Z,16.14
2022-10-17T09:09:30.267Z,16.14
2022-10-17T09:12:05.690Z,16.12
2022-10-17T09:14:53.282Z,16.11
2022-10-17T09:17:45.032Z,16.09
2022-10-17T09:20:24.465Z,16.11
2022-10-17T09:23:03.962Z,16.12
2022-10-17T09:25:44.110Z,16.10
2022-10-17T09:28:38.316Z,16.13
2022-10-17T09:31:22.901Z,16.14
2022-10-17T09:33:54.836Z,16.10
2022-10-17T09:36:26.063Z,16.11
2022-10-17T09:38:57.006Z,16.12
2022-10-17T09:41:49.999Z,16.11
2022-10-17T09:44:22.767Z,16.08
2022-10-17T09:47:27.445Z,16.04
2022-10-17T09:49:54.889Z,16.06
2022-10-17T09:52:35.189Z,16.11
2022-10-17T09:55:07.157Z,16.19
2022-10-17T09:58:00.470Z,16.24
2022-10-17T10:00:41.253Z,16.23
2022-10-17T10:03:17.110Z,16.22
2022-10-17T10:06:07.015Z,16.20
2022-10-17T10:08:50.342Z,16.20
2022-10-17T10:11:20.041Z,16.23
2022-10-17T10:13:49.604Z,16.21
2022-10-17T10:16:32.204Z,16.21
2022-10-17T10:18:59.168Z,16.24
2022-10-17T10:21:27.749Z,16.29
2022-10-17T10:24:09.724Z,16.35
2022-10-17T10:26:48.812Z,16.38
2022-10-17T10:29:56.689Z,16.39
2022-10-17T10:32:26.863Z,16.38
2022-10-17T10:35:00.377Z,16.37
2022-10-17T10:37:39.875Z,16.40
2022-10-17T10:40:20.104Z,16.44
2022-10-17T10:42:51.331Z,16.47
2022-10-17T10:45:48.453Z,16.49
2022-10-17T10:48:25.818Z,16.49
2022-10-17T10:51:07.969Z,16.48
2022-10-17T10:53:46.115Z,16.49
2022-10-17T10:56:20.945Z,16.50
2022-10-17T10:59:06.665Z,16.49
2022-10-17T11:01:53.222Z,16.49
2022-10-17T11:04:26.771Z,16.47
2022-10-17T11:07:04.648Z,16.46
2022-10-17T11:09:54.561Z,16.44
2022-10-17T11:12:31.502Z,16.42
2022-10-17T11:15:31.296Z,16.41
2022-10-17T11:18:05.160Z,16.40
2022-10-17T11:20:58.939Z,16.43
2022-10-17T11:23:44.739Z,16.45
2022-10-17T11:26:27.002Z,16.48
2022-10-17T11:28:56.447Z,16.51
2022-10-17T11:31:31.030Z,16.58
2022-10-17T11:34:06.982Z,16.58
2022-10-17T11:36:39.842Z,16.58
2022-10-17T11:39:56.511Z,16.57
2022-10-17T11:42:44.111Z,16.59
2022-10-17T11:45:21.662Z,16.61
2022-10-17T11:47:57.585Z,16.61
2022-10-17T11:53:31.345Z,16.66
2022-10-17T11:56:01.582Z,16.68
2022-10-17T11:58:55.441Z,16.71
2022-10-17T12:01:52.560Z,16.71
2022-10-17T12:04:52.989Z,16.74
2022-10-17T12:10:39.741Z,16.74
2022-10-17T12:13:51.639Z,16.74
2022-10-17T12:16:21.308Z,16.73
2022-10-17T12:19:11.164Z,16.75
2022-10-17T12:22:00.336Z,16.78
2022-10-17T12:24:44.006Z,16.78
2022-10-17T12:27:50.175Z,16.81
2022-10-17T12:30:24.063Z,16.83
2022-10-17T12:33:22.381Z,16.87
2022-10-17T12:35:51.775Z,16.88
2022-10-17T12:38:18.447Z,16.90
2022-10-17T12:40:49.052Z,16.91
2022-10-17T12:43:15.917Z,16.93
2022-10-17T12:45:54.093Z,16.96
2022-10-17T12:48:39.462Z,16.98
2022-10-17T12:51:40.486Z,17.01
2022-10-17T12:54:16.645Z,17.04
2022-10-17T12:56:49.511Z,17.07
2022-10-17T12:59:24.166Z,17.10
2022-10-17T13:01:58.999Z,17.13
2022-10-17T13:04:29.125Z,17.16
2022-10-17T13:07:00.668Z,17.17
2022-10-17T13:09:31.690Z,17.19
2022-10-17T13:12:04.870Z,17.17
2022-10-17T13:14:33.989Z,17.20
2022-10-17T13:17:04.098Z,17.21
2022-10-17T13:19:42.032Z,17.22
2022-10-17T13:22:15.459Z,17.20
2022-10-17T13:24:42.361Z,17.19
2022-10-17T13:27:32.044Z,17.16
2022-10-17T13:30:02.998Z,17.13
2022-10-17T13:32:39.645Z,17.11
2022-10-17T13:35:17.095Z,17.10
2022-10-17T13:37:51.602Z,17.09
2022-10-17T13:40:49.559Z,17.09
2022-10-17T13:43:24.198Z,17.10
2022-10-17T13:45:54.135Z,17.09
2022-10-17T13:48:30.556Z,17.07
2022-10-17T13:51:07.878Z,17.06
2022-10-17T13:53:41.698Z,17.06
2022-10-17T13:56:28.451Z,17.06
2022-10-17T13:59:01.433Z,17.07
2022-10-17T14:01:30.197Z,17.08
2022-10-17T14:04:08.472Z,17.08
2022-10-17T14:06:46.282Z,17.10
2022-10-17T14:09:28.791Z,17.08
2022-10-17T14:12:12.840Z,17.05
2022-10-17T14:15:09.323Z,17.02
2022-10-17T14:17:38.471Z,17.00
2022-10-17T14:20:47.855Z,17.02
2022-10-17T14:23:21.488Z,17.01
2022-10-17T14:25:46.795Z,16.99
2022-10-17T14:28:14.784Z,16.99
2022-10-17T14:30:57.180Z,17.02
2022-10-17T14:33:31.898Z,17.09
2022-10-17T14:36:02.819Z,17.11
2022-10-17T14:38:30.469Z,17.14
2022-10-17T14:43:57.919Z,17.19
2022-10-17T14:46:25.812Z,17.20
2022-10-17T14:49:04.884Z,17.18
2022-10-17T14:51:40.226Z,17.19
2022-10-17T14:54:24.271Z,17.19
2022-10-17T14:56:53.715Z,17.22
2022-10-17T14:59:51.428Z,17.22
2022-10-17T15:02:12.126Z,17.22
2022-10-17T15:04:38.890Z,17.23
2022-10-17T15:07:05.854Z,17.23
2022-10-17T15:09:33.075Z,17.24
2022-10-17T15:12:02.712Z,17.24
2022-10-17T15:14:29.506Z,17.22
2022-10-17T15:16:56.251Z,17.22
2022-10-17T15:19:23.041Z,17.21
2022-10-17T15:21:49.785Z,17.21
2022-10-17T15:24:16.512Z,17.20
2022-10-17T15:26:44.983Z,17.20
2022-10-17T15:29:16.105Z,17.22
2022-10-17T15:31:43.079Z,17.24
2022-10-17T15:34:09.916Z,17.25
2022-10-17T15:36:42.678Z,17.27
2022-10-17T15:39:10.058Z,17.28
2022-10-17T15:41:36.835Z,17.27
2022-10-17T15:44:03.687Z,17.26
2022-10-17T15:46:35.359Z,17.25
2022-10-17T15:49:07.461Z,17.23
2022-10-17T15:51:34.491Z,17.19
2022-10-17T15:54:01.820Z,17.17
2022-10-17T15:56:36.306Z,17.12
2022-10-17T15:59:14.135Z,17.07
2022-10-17T16:01:42.240Z,17.04
2022-10-17T16:04:15.078Z,17.01
2022-10-17T16:06:42.965Z,16.97
2022-10-17T16:09:10.774Z,16.95
2022-10-17T16:11:44.383Z,16.93
2022-10-17T16:14:16.168Z,16.88
2022-10-17T16:16:43.360Z,16.86
2022-10-17T16:19:10.257Z,16.83
2022-10-17T16:21:40.665Z,16.80
2022-10-17T16:24:12.113Z,16.77
2022-10-17T16:26:39.917Z,16.75
2022-10-17T16:29:07.280Z,16.72
2022-10-17T16:31:37.842Z,16.68
2022-10-17T16:34:06.491Z,16.67
2022-10-17T16:36:33.291Z,16.64
2022-10-17T16:39:00.398Z,16.62
2022-10-17T16:41:31.136Z,16.59
2022-10-17T16:44:03.453Z,16.58
2022-10-17T16:46:32.337Z,16.57
2022-10-17T16:48:59.648Z,16.58
2022-10-17T16:51:26.616Z,16.54
2022-10-17T16:53:56.425Z,16.53
2022-10-17T16:56:25.068Z,16.52
2022-10-17T16:58:53.183Z,16.51
2022-10-17T17:01:23.817Z,16.50
2022-10-17T17:03:52.551Z,16.48
2022-10-17T17:06:27.433Z,16.47
2022-10-17T17:08:56.011Z,16.44
2022-10-17T17:11:26.081Z,16.40
2022-10-17T17:13:56.900Z,16.38
2022-10-17T17:16:27.157Z,16.35
2022-10-17T17:18:59.830Z,16.38
2022-10-17T17:21:27.878Z,16.37
2022-10-17T17:23:59.006Z,16.37
2022-10-17T17:26:29.833Z,16.33
2022-10-17T17:28:59.942Z,16.31
2022-10-17T17:31:30.588Z,16.27
2022-10-17T17:33:58.212Z,16.24
2022-10-17T17:36:32.777Z,16.22
2022-10-17T17:39:04.033Z,16.21
2022-10-17T17:41:31.506Z,16.22
2022-10-17T17:43:58.462Z,16.21
2022-10-17T17:46:25.983Z,16.19
2022-10-17T17:48:55.161Z,16.17
2022-10-17T17:51:28.378Z,16.14
2022-10-17T17:53:56.858Z,16.12
2022-10-17T17:56:28.046Z,16.15
2022-10-17T17:59:01.616Z,16.14
2022-10-17T18:01:32.364Z,16.13
2022-10-17T18:03:59.565Z,16.11
2022-10-17T18:06:27.800Z,16.11
2022-10-17T18:08:58.482Z,16.10
2022-10-17T18:11:27.403Z,16.08
2022-10-17T18:13:56.597Z,16.06
2022-10-17T18:16:25.000Z,16.04
2022-10-17T18:18:51.756Z,16.02
2022-10-17T18:21:19.176Z,16.01
2022-10-17T18:23:49.330Z,15.99
2022-10-17T18:26:16.508Z,15.97
2022-10-17T18:28:44.365Z,15.96
2022-10-17T18:31:21.936Z,15.93
2022-10-17T18:33:52.913Z,15.91
2022-10-17T18:36:20.964Z,15.89
2022-10-17T18:38:48.772Z,15.87
2022-10-17T18:41:19.139Z,15.87
2022-10-17T18:43:48.172Z,15.86
2022-10-17T18:46:29.285Z,15.84
2022-10-17T18:48:57.336Z,15.82
2022-10-17T18:51:26.330Z,15.80
2022-10-17T18:53:56.553Z,15.81
2022-10-17T18:56:24.684Z,15.80
2022-10-17T18:58:51.929Z,15.79
2022-10-17T19:01:22.678Z,15.78
2022-10-17T19:03:54.514Z,15.78
2022-10-17T19:06:25.393Z,15.78
2022-10-17T19:08:52.391Z,15.78
2022-10-17T19:11:24.077Z,15.77
2022-10-17T19:13:52.605Z,15.78
2022-10-17T19:16:26.780Z,15.76
2022-10-17T19:18:57.842Z,15.77
2022-10-17T19:21:25.643Z,15.78
2022-10-17T19:24:02.082Z,15.78
2022-10-17T19:26:35.011Z,15.77
2022-10-17T19:29:02.319Z,15.78
2022-10-17T19:31:31.741Z,15.82
2022-10-17T19:34:00.422Z,15.84
2022-10-17T19:36:33.371Z,15.84
2022-10-17T19:39:04.604Z,15.82
2022-10-17T19:41:31.918Z,15.82
2022-10-17T19:44:00.545Z,15.81
2022-10-17T19:46:29.743Z,15.83
2022-10-17T19:48:57.312Z,15.85
2022-10-17T19:51:25.383Z,15.85
2022-10-17T19:53:54.733Z,15.84
2022-10-17T19:56:24.029Z,15.84
2022-10-17T19:58:51.861Z,15.84
2022-10-17T20:01:26.016Z,15.86
2022-10-17T20:03:53.738Z,15.85
2022-10-17T20:06:21.897Z,15.83
2022-10-17T20:08:49.428Z,15.84
2022-10-17T20:11:23.446Z,15.84
2022-10-17T20:13:51.540Z,15.84
2022-10-17T20:16:25.421Z,15.86
2022-10-17T20:18:56.509Z,15.85
2022-10-17T20:21:32.940Z,15.85
2022-10-17T20:24:00.792Z,15.83
2022-10-17T20:26:38.603Z,15.81
2022-10-17T20:29:12.713Z,15.81
2022-10-17T20:31:42.990Z,15.81
2022-10-17T20:34:14.203Z,15.77
2022-10-17T20:36:41.151Z,15.75
2022-10-17T20:39:10.537Z,15.75
2022-10-17T20:41:37.290Z,15.74
2022-10-17T20:44:04.623Z,15.75
2022-10-17T20:46:44.782Z,15.75
2022-10-17T20:49:21.383Z,15.75
2022-10-17T20:51:48.125Z,15.74
2022-10-17T20:54:14.946Z,15.73
2022-10-17T20:56:41.810Z,15.72
2022-10-17T20:59:14.369Z,15.74
2022-10-17T21:01:41.324Z,15.73
2022-10-17T21:04:40.297Z,15.72
2022-10-17T21:06:55.471Z,15.71
2022-10-17T21:09:22.621Z,15.71
2022-10-17T21:11:55.516Z,15.71
2022-10-17T21:14:24.880Z,15.69
2022-10-17T21:16:52.388Z,15.66
2022-10-17T21:19:19.806Z,15.63
2022-10-17T21:21:46.813Z,15.59
2022-10-17T21:24:20.731Z,15.58
2022-10-17T21:26:55.238Z,15.56
2022-10-17T21:29:23.821Z,15.56
2022-10-17T21:31:51.404Z,15.54
2022-10-17T21:34:23.882Z,15.53
2022-10-17T21:36:51.958Z,15.52
2022-10-17T21:39:19.221Z,15.52
2022-10-17T21:41:45.977Z,15.51
2022-10-17T21:44:19.088Z,15.50
2022-10-17T21:46:47.097Z,15.50
2022-10-17T21:49:18.599Z,15.48
2022-10-17T21:51:52.811Z,15.46
2022-10-17T21:54:22.980Z,15.46
2022-10-17T21:56:51.000Z,15.40
2022-10-17T21:59:17.937Z,15.31
2022-10-17T22:01:45.980Z,15.30
2022-10-17T22:04:17.328Z,15.30
2022-10-17T22:06:46.867Z,15.32
2022-10-17T22:09:22.066Z,15.36
2022-10-17T22:11:52.975Z,15.37
2022-10-17T22:14:22.973Z,15.36
2022-10-17T22:16:50.993Z,15.34
2022-10-17T22:19:27.211Z,15.33
2022-10-17T22:21:54.861Z,15.33
2022-10-17T22:24:23.313Z,15.31
2022-10-17T22:26:50.408Z,15.29
2022-10-17T22:29:17.654Z,15.28
2022-10-17T22:31:44.558Z,15.27
2022-10-17T22:34:14.645Z,15.25
2022-10-17T22:36:42.361Z,15.25
2022-10-17T22:39:10.260Z,15.23
2022-10-17T22:41:37.057Z,15.21
2022-10-17T22:44:04.130Z,15.19
2022-10-17T22:46:30.977Z,15.19
2022-10-17T22:48:57.737Z,15.20
2022-10-17T22:53:56.557Z,15.20
2022-10-17T22:56:23.627Z,15.19
2022-10-17T22:58:51.185Z,15.18
2022-10-17T23:01:23.642Z,15.16
2022-10-17T23:03:52.532Z,15.13
2022-10-17T23:06:20.572Z,15.08
2022-10-17T23:08:47.728Z,15.07
2022-10-17T23:11:14.739Z,15.06
2022-10-17T23:13:41.783Z,15.06
2022-10-17T23:16:09.400Z,15.08
2022-10-17T23:18:38.207Z,15.10
2022-10-17T23:21:05.684Z,15.11
2022-10-17T23:23:32.590Z,15.10
2022-10-17T23:26:09.617Z,15.09
2022-10-17T23:28:37.019Z,15.08
2022-10-17T23:31:14.907Z,15.09
2022-10-17T23:33:44.816Z,15.11
2022-10-17T23:36:15.092Z,15.13
2022-10-17T23:38:44.400Z,15.15
2022-10-17T23:41:11.631Z,15.14
2022-10-17T23:43:38.517Z,15.15
2022-10-17T23:46:06.636Z,15.14
2022-10-17T23:48:33.748Z,15.12
2022-10-17T23:51:00.923Z,15.12
2022-10-17T23:53:27.734Z,15.11
2022-10-17T23:55:54.513Z,15.09
2022-10-17T23:58:21.421Z,15.08
